Longisland, North Carolina
Current Conditions -  °F | °C
As of 5:35 PM on Monday 20 Oct 2014 (Local Time) from KSVH Reporting Station
Clear Clear  
Wind Chill: 67°   Ceiling: Unl
Heat Index: 67°   Visibility: 10mi
Dew Point: 49°   Wind: 6mph
Humidity: 52%   Direction: 190°S
Pressure: 29.97"   Gusts: NA
Location:  35.6752°N, 81.0375°W
Report Text: KSVH 202135Z AUTO 19005KT 10SM CLR 20/09 A2997 RMK AO2 T01960094
Loading
Personal Weather Stations






























Interactive Weather Map
Tropical Storm Tracking
New forecast layout! Learn more

10-Day Weather Forecast

Advertisements
Track Severe Weather on mobile